Time;durP1;ratioP1;P1;durP2;ratioP2;P2;SDS_P1;SDS_P2;PMS_P1;PMS_P2;Temp;Humidity;BMP_temperature;BMP_pressure;BME280_temperature;BME280_humidity;BME280_pressure;Samples;Min_cycle;Max_cycle;Signal;HPM_P1;HPM_P2
2021/12/22 00:01:53;;;;;;;5.90;4.13;;;14.80;39.80;13.70;102283.00;;;;5030861;28;20124;-67
2021/12/22 00:04:45;;;;;;;4.63;4.00;;;14.80;39.80;13.70;102284.00;;;;5045682;28;20056;-67
2021/12/22 00:07:31;;;;;;;6.03;4.20;;;14.80;39.80;13.70;102287.00;;;;5049423;28;20052;-67
2021/12/22 00:10:18;;;;;;;5.47;4.05;;;14.80;39.80;13.70;102288.00;;;;5032082;28;20037;-67
2021/12/22 00:13:04;;;;;;;5.25;3.97;;;14.80;39.70;13.70;102286.00;;;;5021442;28;20099;-67
2021/12/22 00:15:50;;;;;;;6.53;4.57;;;14.80;39.80;13.70;102280.00;;;;5048258;28;20703;-67
2021/12/22 00:18:36;;;;;;;4.57;4.00;;;14.80;39.80;13.70;102272.00;;;;5033807;28;20040;-67
2021/12/22 00:21:23;;;;;;;5.65;4.20;;;14.80;39.70;13.70;102277.00;;;;5034159;28;20478;-67
2021/12/22 00:24:09;;;;;;;5.57;3.85;;;14.80;39.80;13.70;102279.00;;;;5050326;28;20064;-67
2021/12/22 00:26:56;;;;;;;5.50;4.28;;;14.80;39.70;13.70;102284.00;;;;5041955;28;20032;-67
2021/12/22 00:29:46;;;;;;;7.45;4.60;;;14.80;39.70;13.70;102287.00;;;;5049035;28;20439;-67
2021/12/22 00:32:35;;;;;;;4.57;4.05;;;14.80;39.70;13.70;102281.00;;;;5051109;28;20493;-67
2021/12/22 00:35:24;;;;;;;4.93;3.58;;;14.80;39.70;13.70;102293.00;;;;5048371;28;20094;-67
2021/12/22 00:38:12;;;;;;;5.05;4.30;;;14.80;39.70;13.70;102292.00;;;;5019428;28;20043;-67
2021/12/22 00:40:58;;;;;;;5.50;4.13;;;14.80;39.70;13.70;102287.00;;;;5048156;28;20139;-67
2021/12/22 00:43:44;;;;;;;5.40;4.40;;;14.80;39.70;13.70;102284.00;;;;5046568;28;20394;-67
2021/12/22 00:46:31;;;;;;;4.85;4.10;;;14.80;39.70;13.70;102295.00;;;;5048894;28;20052;-67
2021/12/22 00:49:17;;;;;;;5.43;4.13;;;14.80;39.70;13.70;102297.00;;;;5048568;28;20063;-67
2021/12/22 00:52:04;;;;;;;6.05;4.28;;;14.80;39.70;13.70;102288.00;;;;5048146;28;20072;-67
2021/12/22 00:54:50;;;;;;;6.78;4.70;;;14.80;39.70;13.70;102294.00;;;;5034851;28;20051;-67
2021/12/22 00:57:38;;;;;;;5.50;4.22;;;14.80;39.70;13.70;102285.00;;;;5047837;28;20387;-67
2021/12/22 01:00:30;;;;;;;6.57;4.38;;;14.80;39.70;13.70;102284.00;;;;5048099;28;20550;-67
2021/12/22 01:03:17;;;;;;;5.80;4.30;;;14.80;39.70;13.70;102281.00;;;;5047722;28;20037;-67
2021/12/22 01:06:04;;;;;;;5.60;4.43;;;14.80;39.70;13.70;102283.00;;;;5046827;28;20036;-67
2021/12/22 01:08:50;;;;;;;6.90;5.18;;;14.80;39.70;13.70;102277.00;;;;5047126;28;20037;-67
2021/12/22 01:11:36;;;;;;;6.93;5.03;;;14.80;39.60;13.70;102288.00;;;;5049448;28;20128;-67
2021/12/22 01:14:22;;;;;;;5.88;4.47;;;14.80;39.60;13.70;102282.00;;;;5032673;28;20422;-67
2021/12/22 01:17:11;;;;;;;5.88;4.65;;;14.80;39.60;13.70;102294.00;;;;5031826;28;20059;-67
2021/12/22 01:20:04;;;;;;;5.75;4.88;;;14.80;39.60;13.70;102297.00;;;;5031350;28;20037;-67
2021/12/22 01:22:50;;;;;;;6.85;4.80;;;14.80;39.60;13.70;102312.00;;;;5046801;28;20490;-67
2021/12/22 01:25:42;;;;;;;6.75;5.20;;;14.70;39.60;13.70;102314.00;;;;5048654;28;20033;-67
2021/12/22 01:28:28;;;;;;;6.05;4.60;;;14.70;39.60;13.70;102306.00;;;;5040634;28;20106;-67
2021/12/22 01:31:16;;;;;;;6.40;4.40;;;14.70;39.60;13.70;102304.00;;;;5034807;28;20033;-67
2021/12/22 01:34:02;;;;;;;;;;;14.70;39.60;13.60;102307.00;;;;5021758;28;20045;-67
2021/12/22 01:36:48;;;;;;;6.72;4.82;;;14.70;39.90;13.60;102305.00;;;;5048766;28;20384;-67
2021/12/22 01:39:34;;;;;;;7.15;4.97;;;14.80;39.70;13.60;102305.00;;;;5048940;28;20053;-67
2021/12/22 01:42:21;;;;;;;6.72;4.90;;;14.70;39.60;13.60;102306.00;;;;5046310;28;20154;-67
2021/12/22 01:45:31;;;;;;;6.53;4.53;;;14.80;39.70;13.70;102303.00;;;;5031007;28;20037;-67
2021/12/22 01:51:24;;;;;;;5.28;4.43;;;14.70;39.60;13.60;102301.00;;;;5035112;28;20060;-67
2021/12/22 01:54:40;;;;;;;6.15;4.63;;;14.70;39.60;13.60;102297.00;;;;5019372;28;20040;-67
2021/12/22 01:57:26;;;;;;;6.10;4.63;;;14.70;39.60;13.60;102300.00;;;;5032612;28;20079;-67
2021/12/22 02:00:14;;;;;;;6.03;4.47;;;14.70;39.60;13.60;102296.00;;;;5046947;28;20099;-67
2021/12/22 02:03:00;;;;;;;6.97;5.30;;;14.70;39.60;13.60;102296.00;;;;5019900;28;20033;-67
2021/12/22 02:05:47;;;;;;;6.00;4.93;;;14.70;39.60;13.60;102297.00;;;;5044454;28;20033;-67
2021/12/22 02:08:33;;;;;;;5.90;4.82;;;14.70;39.60;13.60;102285.00;;;;5044773;28;20036;-67
2021/12/22 02:11:20;;;;;;;6.05;4.80;;;14.70;39.60;13.60;102289.00;;;;5031707;28;20048;-67
2021/12/22 02:14:07;;;;;;;5.75;4.47;;;14.70;39.50;13.60;102303.00;;;;5047323;28;20052;-67
2021/12/22 02:16:53;;;;;;;6.93;5.45;;;14.70;39.60;13.60;102299.00;;;;5046235;28;21503;-67
2021/12/22 02:19:44;;;;;;;4.60;4.03;;;14.70;39.60;13.70;102291.00;;;;5048463;28;20546;-67
2021/12/22 02:22:30;;;;;;;8.07;5.03;;;14.70;39.50;13.60;102285.00;;;;5032467;28;20044;-67
2021/12/22 02:25:20;;;;;;;6.30;4.85;;;14.70;39.60;13.70;102287.00;;;;5047359;28;20091;-67
2021/12/22 02:28:14;;;;;;;5.90;4.45;;;14.70;39.60;13.70;102278.00;;;;5046538;28;20094;-67
2021/12/22 02:31:00;;;;;;;5.43;4.63;;;14.70;39.50;13.60;102284.00;;;;5044826;28;20094;-67
2021/12/22 02:33:49;;;;;;;6.05;4.95;;;14.70;40.20;13.60;102288.00;;;;5046190;28;20043;-67
2021/12/22 02:36:39;;;;;;;6.35;4.57;;;14.70;39.50;13.60;102280.00;;;;5019554;28;20048;-67
2021/12/22 02:39:25;;;;;;;6.20;4.55;;;14.70;39.50;13.60;102271.00;;;;5030247;28;20049;-67
2021/12/22 02:42:13;;;;;;;5.50;4.80;;;14.70;39.50;13.60;102282.00;;;;5030812;28;20778;-67
2021/12/22 02:45:07;;;;;;;6.38;4.72;;;14.70;39.50;13.60;102281.00;;;;5045715;28;20032;-67
2021/12/22 02:47:53;;;;;;;5.93;4.18;;;14.70;39.50;13.60;102279.00;;;;5026574;28;20044;-67
2021/12/22 02:50:40;;;;;;;6.07;4.78;;;14.70;39.60;13.60;102287.00;;;;5045120;28;20044;-67
2021/12/22 02:53:59;;;;;;;6.25;4.68;;;14.70;39.50;13.60;102292.00;;;;5028845;28;20049;-67
2021/12/22 02:56:52;;;;;;;6.90;4.85;;;14.70;39.50;13.60;102290.00;;;;5022734;28;20068;-67
2021/12/22 03:03:01;;;;;;;5.57;4.55;;;14.70;39.50;13.60;102291.00;;;;5044444;28;20124;-67
2021/12/22 03:05:47;;;;;;;6.18;4.78;;;14.70;39.50;13.60;102293.00;;;;5043651;28;20039;-67
2021/12/22 03:08:33;;;;;;;5.30;4.70;;;14.70;39.50;13.60;102295.00;;;;5048154;28;20103;-67
2021/12/22 03:11:19;;;;;;;6.95;4.63;;;14.70;39.50;13.60;102301.00;;;;5044558;28;20060;-67
2021/12/22 03:14:06;;;;;;;5.95;4.28;;;14.60;39.50;13.60;102299.00;;;;5017732;28;20041;-67
2021/12/22 03:16:52;;;;;;;5.40;4.30;;;14.70;39.50;13.60;102294.00;;;;5042987;28;20033;-67
2021/12/22 03:19:38;;;;;;;6.78;4.90;;;14.70;39.60;13.60;102299.00;;;;5030194;28;20572;-67
2021/12/22 03:22:25;;;;;;;5.10;4.35;;;14.70;39.60;13.60;102290.00;;;;5043352;28;20060;-67
2021/12/22 03:25:16;;;;;;;5.60;4.47;;;14.70;39.50;13.60;102297.00;;;;5024357;28;20052;-67
2021/12/22 03:28:03;;;;;;;5.50;4.28;;;14.70;40.30;13.60;102294.00;;;;5021087;28;20051;-67
2021/12/22 03:30:52;;;;;;;5.47;4.30;;;14.70;39.50;13.60;102295.00;;;;5043436;28;20040;-67
2021/12/22 03:33:38;;;;;;;5.97;4.63;;;14.70;39.50;13.60;102296.00;;;;5043989;28;20072;-68
2021/12/22 03:36:24;;;;;;;5.18;4.00;;;14.70;39.50;13.60;102299.00;;;;5045696;28;20056;-67
2021/12/22 03:39:12;;;;;;;5.15;4.63;;;14.70;39.50;13.60;102294.00;;;;5044366;28;20102;-68
2021/12/22 03:41:58;;;;;;;4.93;3.97;;;14.70;39.50;13.60;102290.00;;;;5048408;28;20478;-67
2021/12/22 03:44:45;;;;;;;5.68;3.95;;;14.60;39.50;13.60;102286.00;;;;5035549;28;20037;-67
2021/12/22 03:47:31;;;;;;;4.80;4.20;;;14.60;39.50;13.50;102275.00;;;;5047431;28;20063;-67
2021/12/22 03:50:17;;;;;;;5.38;4.13;;;14.60;39.50;13.60;102275.00;;;;5049798;28;20127;-68
2021/12/22 03:53:04;;;;;;;4.97;4.10;;;14.60;39.50;13.50;102278.00;;;;5034977;28;20040;-67
2021/12/22 03:55:50;;;;;;;5.38;4.45;;;14.60;39.50;13.50;102274.00;;;;5049255;28;20504;-67
2021/12/22 03:58:36;;;;;;;5.10;4.13;;;14.60;39.50;13.50;102269.00;;;;5047649;28;20056;-67
2021/12/22 04:01:22;;;;;;;5.82;4.38;;;14.60;39.50;13.50;102274.00;;;;5033310;28;20510;-67
2021/12/22 04:04:14;;;;;;;5.45;4.40;;;14.60;40.10;13.60;102281.00;;;;5048629;28;20051;-67
2021/12/22 04:07:00;;;;;;;5.28;4.43;;;14.60;39.50;13.60;102280.00;;;;5049898;28;20135;-67
2021/12/22 04:09:46;;;;;;;5.57;3.97;;;14.70;39.50;13.60;102277.00;;;;5048988;28;20047;-67
2021/12/22 04:12:32;;;;;;;5.15;4.15;;;14.70;40.10;13.60;102287.00;;;;5033554;28;20376;-67
2021/12/22 04:15:24;;;;;;;4.53;4.00;;;14.70;39.40;13.60;102286.00;;;;5050654;28;20052;-67
2021/12/22 04:18:11;;;;;;;5.60;4.00;;;14.70;39.30;13.60;102288.00;;;;5046236;28;20037;-67
2021/12/22 04:20:58;;;;;;;5.50;4.17;;;14.70;39.40;13.60;102294.00;;;;5034300;28;20224;-67
2021/12/22 04:23:44;;;;;;;5.05;4.05;;;14.70;39.40;13.60;102294.00;;;;5045852;28;20064;-67
2021/12/22 04:26:31;;;;;;;4.57;4.10;;;14.70;39.30;13.60;102292.00;;;;5027927;28;20041;-67
2021/12/22 04:29:18;;;;;;;4.85;3.83;;;14.70;39.30;13.60;102290.00;;;;5032822;28;20116;-67
2021/12/22 04:32:04;;;;;;;5.68;3.78;;;14.70;39.30;13.60;102290.00;;;;5048805;28;20429;-67
2021/12/22 04:34:51;;;;;;;4.97;4.13;;;14.70;39.30;13.60;102287.00;;;;5047443;28;20040;-67
2021/12/22 04:37:37;;;;;;;5.68;3.92;;;14.70;39.30;13.60;102289.00;;;;5048539;28;20044;-67
2021/12/22 04:40:23;;;;;;;4.90;3.65;;;14.70;39.30;13.60;102284.00;;;;5048087;28;20041;-67
2021/12/22 04:43:09;;;;;;;4.63;3.97;;;14.70;39.20;13.60;102283.00;;;;5047804;28;20044;-67
2021/12/22 04:45:55;;;;;;;5.43;4.45;;;14.70;39.20;13.60;102284.00;;;;5046211;28;20474;-67
2021/12/22 04:48:41;;;;;;;6.57;4.18;;;14.70;39.20;13.60;102289.00;;;;5033674;28;20037;-67
2021/12/22 04:51:30;;;;;;;4.78;3.50;;;14.70;39.20;13.60;102279.00;;;;5047290;28;20079;-67
2021/12/22 04:57:06;;;;;;;4.65;3.63;;;14.70;39.30;13.60;102268.00;;;;5025284;28;20103;-67
2021/12/22 04:59:52;;;;;;;4.00;3.28;;;14.70;39.20;13.60;102256.00;;;;5047909;28;20037;-67
2021/12/22 05:02:38;;;;;;;4.50;3.65;;;14.70;39.20;13.60;102266.00;;;;5049135;28;20045;-67
2021/12/22 05:05:25;;;;;;;3.60;3.10;;;14.70;39.30;13.60;102270.00;;;;5047415;28;20040;-67
2021/12/22 05:08:16;;;;;;;5.30;3.88;;;14.70;39.30;13.60;102275.00;;;;5035025;28;20043;-66
2021/12/22 05:11:02;;;;;;;4.20;3.25;;;14.70;39.20;13.60;102266.00;;;;5047420;28;20044;-67
2021/12/22 05:13:48;;;;;;;3.78;3.05;;;14.70;39.20;13.60;102264.00;;;;5047503;28;20055;-67
2021/12/22 05:16:43;;;;;;;4.28;3.10;;;14.70;39.20;13.60;102255.00;;;;5048652;28;20380;-67
2021/12/22 05:19:29;;;;;;;5.07;3.40;;;14.70;39.20;13.60;102256.00;;;;5025245;28;20049;-67
2021/12/22 05:22:16;;;;;;;3.97;3.55;;;14.70;39.20;13.60;102262.00;;;;5020787;28;20037;-67
2021/12/22 05:25:04;;;;;;;4.47;3.60;;;14.70;39.20;13.60;102253.00;;;;5033541;28;20090;-67
2021/12/22 05:27:50;;;;;;;4.10;3.42;;;14.70;39.20;13.60;102251.00;;;;5047592;28;20036;-67
2021/12/22 05:30:36;;;;;;;4.22;3.40;;;14.70;39.20;13.60;102253.00;;;;5045371;28;20131;-67
2021/12/22 05:33:22;;;;;;;4.72;3.15;;;14.70;39.20;13.60;102257.00;;;;5031437;28;20045;-67
2021/12/22 05:36:08;;;;;;;4.25;3.13;;;14.70;39.20;13.60;102254.00;;;;5048490;28;20053;-67
2021/12/22 05:38:55;;;;;;;4.72;3.60;;;14.70;39.20;13.60;102256.00;;;;5047166;28;20051;-67
2021/12/22 05:41:41;;;;;;;4.25;3.17;;;14.70;39.20;13.60;102247.00;;;;5015631;28;20512;-67
2021/12/22 05:44:27;;;;;;;3.28;2.78;;;14.70;39.20;13.60;102249.00;;;;5047804;28;20475;-67
2021/12/22 05:47:13;;;;;;;4.57;3.22;;;14.70;39.20;13.60;102244.00;;;;5027722;28;20120;-67
2021/12/22 05:50:02;;;;;;;3.85;2.95;;;14.70;39.20;13.60;102254.00;;;;5045819;28;20045;-67
2021/12/22 05:52:49;;;;;;;3.97;3.00;;;14.70;39.20;13.60;102240.00;;;;5047184;28;20045;-67
2021/12/22 05:55:35;;;;;;;4.00;3.58;;;14.70;39.20;13.60;102244.00;;;;5020529;28;20121;-67
2021/12/22 05:58:22;;;;;;;3.50;3.15;;;14.70;39.20;13.60;102249.00;;;;5046218;28;20053;-67
2021/12/22 06:01:08;;;;;;;5.03;3.25;;;14.60;39.20;13.50;102248.00;;;;5032295;28;20498;-67
2021/12/22 06:03:54;;;;;;;4.65;2.90;;;14.70;39.20;13.50;102242.00;;;;5032890;28;20410;-67
2021/12/22 06:06:42;;;;;;;4.10;3.22;;;14.60;39.20;13.60;102251.00;;;;5046073;28;20033;-67
2021/12/22 06:09:29;;;;;;;4.97;3.28;;;14.70;39.20;13.60;102252.00;;;;5043567;28;20045;-67
2021/12/22 06:12:15;;;;;;;4.47;3.20;;;14.60;39.20;13.60;102235.00;;;;5045890;28;20474;-67
2021/12/22 06:15:01;;;;;;;4.30;2.70;;;14.70;39.20;13.60;102235.00;;;;5046903;28;20379;-67
2021/12/22 06:17:53;;;;;;;4.03;2.78;;;14.70;39.20;13.60;102241.00;;;;5018243;28;20045;-67
2021/12/22 06:20:39;;;;;;;3.90;2.75;;;14.70;39.20;13.60;102230.00;;;;5044307;28;20045;-67
2021/12/22 06:23:26;;;;;;;4.35;2.80;;;14.70;39.10;13.60;102229.00;;;;5045064;28;20041;-67
2021/12/22 06:26:12;;;;;;;4.00;3.35;;;14.60;39.10;13.60;102241.00;;;;5045410;28;20029;-67
2021/12/22 06:28:59;;;;;;;4.53;3.22;;;14.70;39.10;13.60;102241.00;;;;5048474;28;20115;-67
2021/12/22 06:31:45;;;;;;;3.83;3.05;;;14.70;39.10;13.60;102231.00;;;;5046152;28;20132;-67
2021/12/22 06:34:31;;;;;;;3.97;2.85;;;14.70;39.10;13.60;102235.00;;;;5043587;28;20037;-67
2021/12/22 06:37:17;;;;;;;4.30;3.45;;;14.70;39.10;13.50;102237.00;;;;5046136;28;20428;-67
2021/12/22 06:40:05;;;;;;;4.27;3.17;;;14.70;39.10;13.60;102230.00;;;;5036930;28;20040;-67
2021/12/22 06:42:51;;;;;;;;;;;14.70;39.10;13.50;102230.00;;;;5034631;28;20055;-67
2021/12/22 06:45:38;;;;;;;3.40;2.63;;;14.70;39.30;13.50;102226.00;;;;5046709;28;19921;-68
2021/12/22 06:48:24;;;;;;;3.47;2.85;;;14.70;39.10;13.50;102224.00;;;;5042422;28;20040;-67
2021/12/22 06:51:10;;;;;;;4.25;3.10;;;14.60;39.00;13.50;102228.00;;;;5041996;28;20036;-67
2021/12/22 06:53:56;;;;;;;4.15;3.05;;;14.60;39.00;13.50;102230.00;;;;5028361;28;20044;-67
2021/12/22 06:56:42;;;;;;;3.85;3.10;;;14.60;39.00;13.50;102231.00;;;;5035588;28;20047;-66
2021/12/22 06:59:28;;;;;;;4.88;3.05;;;14.60;39.00;13.50;102223.00;;;;5038960;28;20506;-66
2021/12/22 07:02:16;;;;;;;4.60;3.17;;;14.60;39.00;13.50;102232.00;;;;5023003;28;20040;-66
2021/12/22 07:05:07;;;;;;;4.22;2.75;;;14.60;39.00;13.50;102234.00;;;;5015291;28;20041;-67
2021/12/22 07:07:53;;;;;;;3.85;2.72;;;14.60;39.00;13.50;102236.00;;;;5042330;28;20044;-67
2021/12/22 07:10:39;;;;;;;4.10;3.00;;;14.60;39.00;13.50;102232.00;;;;5038166;28;20090;-66
2021/12/22 07:13:25;;;;;;;3.97;3.00;;;14.60;39.00;13.50;102231.00;;;;5043014;28;20045;-67
2021/12/22 07:16:13;;;;;;;4.30;2.78;;;14.60;39.00;13.50;102234.00;;;;5043171;28;20033;-67
2021/12/22 07:18:59;;;;;;;5.35;3.28;;;14.60;38.90;13.50;102233.00;;;;5029230;28;20048;-67
2021/12/22 07:21:48;;;;;;;3.40;3.10;;;14.60;38.90;13.50;102241.00;;;;5030190;28;20087;-67
2021/12/22 07:24:35;;;;;;;4.07;2.80;;;14.60;38.90;13.50;102231.00;;;;5032088;28;20044;-66
2021/12/22 07:27:21;;;;;;;5.25;3.28;;;14.60;38.90;13.50;102242.00;;;;5041149;28;20222;-66
2021/12/22 07:30:08;;;;;;;4.10;3.17;;;14.60;38.90;13.60;102236.00;;;;5045243;28;20059;-67
2021/12/22 07:32:54;;;;;;;3.65;2.55;;;14.60;38.90;13.50;102247.00;;;;5039862;28;20043;-66
2021/12/22 07:36:06;;;;;;;4.28;2.85;;;14.60;38.90;13.50;102251.00;;;;5044729;28;20040;-66
2021/12/22 07:38:58;;;;;;;3.85;3.28;;;14.60;38.80;13.50;102246.00;;;;5042030;28;20032;-67
2021/12/22 07:41:44;;;;;;;4.20;3.10;;;14.60;38.80;13.50;102251.00;;;;5022135;28;20052;-66
2021/12/22 07:44:30;;;;;;;5.65;3.38;;;14.60;38.80;13.50;102255.00;;;;5029575;28;20091;-67
2021/12/22 07:47:16;;;;;;;2.70;2.33;;;14.60;38.80;13.50;102249.00;;;;5045597;28;20041;-66
2021/12/22 07:50:04;;;;;;;4.15;2.90;;;14.60;38.80;13.50;102245.00;;;;5025927;28;20112;-66
2021/12/22 07:52:51;;;;;;;3.67;2.72;;;14.60;38.80;13.50;102246.00;;;;5024294;28;20037;-67
2021/12/22 07:55:37;;;;;;;5.15;3.05;;;14.60;38.80;13.50;102240.00;;;;5041779;28;20052;-66
2021/12/22 07:58:24;;;;;;;4.97;3.03;;;14.60;38.80;13.50;102230.00;;;;5043894;28;20057;-66
2021/12/22 08:01:10;;;;;;;5.60;2.95;;;14.60;38.80;13.50;102229.00;;;;5016029;28;20082;-67
2021/12/22 08:03:56;;;;;;;6.78;3.15;;;14.60;38.80;13.50;102230.00;;;;5029621;28;20047;-66
2021/12/22 08:06:42;;;;;;;4.22;2.65;;;14.60;38.70;13.50;102226.00;;;;5028877;28;20047;-66
2021/12/22 08:09:29;;;;;;;3.70;2.88;;;14.60;38.70;13.50;102226.00;;;;5041034;28;20473;-66
2021/12/22 08:12:15;;;;;;;5.93;3.17;;;14.60;38.70;13.50;102221.00;;;;5028952;28;20545;-66
2021/12/22 08:15:01;;;;;;;4.72;3.22;;;14.60;38.70;13.50;102231.00;;;;5039465;28;20049;-66
2021/12/22 08:17:48;;;;;;;5.07;3.58;;;14.60;38.70;13.50;102229.00;;;;5045429;28;20041;-66
2021/12/22 08:20:34;;;;;;;3.92;3.05;;;14.60;39.50;13.50;102228.00;;;;5020051;28;20618;-66
2021/12/22 08:23:20;;;;;;;3.78;3.05;;;14.60;38.80;13.50;102238.00;;;;5043738;28;20128;-66
2021/12/22 08:26:06;;;;;;;5.28;3.10;;;14.60;38.80;13.50;102233.00;;;;5046581;28;20116;-66
2021/12/22 08:28:53;;;;;;;8.98;3.92;;;14.60;38.70;13.50;102232.00;;;;5047474;28;20120;-66
2021/12/22 08:31:39;;;;;;;10.27;5.38;;;14.60;38.70;13.50;102230.00;;;;5045361;28;20082;-66
2021/12/22 08:34:34;;;;;;;11.05;6.25;;;14.60;38.70;13.50;102211.00;;;;5031979;28;20044;-66
2021/12/22 08:40:26;;;;;;;10.80;6.35;;;14.60;38.70;13.50;102214.00;;;;5048271;28;20398;-66
2021/12/22 08:43:12;;;;;;;11.23;6.05;;;14.60;38.70;13.50;102219.00;;;;5016412;28;20068;-66
2021/12/22 08:45:58;;;;;;;9.15;5.88;;;14.60;38.70;13.50;102214.00;;;;5025972;28;20140;-66
2021/12/22 08:48:44;;;;;;;9.90;5.50;;;14.80;38.90;13.50;102202.00;;;;5046383;28;20040;-66
2021/12/22 08:51:30;;;;;;;10.05;5.57;;;14.60;38.70;13.50;102205.00;;;;5047106;28;20124;-66
2021/12/22 08:54:17;;;;;;;11.85;5.60;;;14.60;39.40;13.50;102210.00;;;;5025840;28;20036;-66
2021/12/22 08:57:04;;;;;;;10.05;5.18;;;14.60;38.70;13.50;102212.00;;;;5031837;28;20045;-66
2021/12/22 08:59:50;;;;;;;8.13;5.43;;;14.50;38.60;13.50;102208.00;;;;5019406;28;20045;-66
2021/12/22 09:02:38;;;;;;;9.65;4.95;;;14.50;38.70;13.50;102211.00;;;;5027289;28;20048;-66
2021/12/22 09:05:24;;;;;;;8.20;5.50;;;14.50;38.70;13.50;102212.00;;;;5031662;28;20037;-66
2021/12/22 09:08:10;;;;;;;6.97;4.93;;;14.50;38.60;13.50;102199.00;;;;5046357;28;20041;-66
2021/12/22 09:10:57;;;;;;;7.13;4.68;;;14.60;38.70;13.50;102207.00;;;;5016227;28;20041;-66
2021/12/22 09:13:43;;;;;;;6.50;4.43;;;14.60;38.60;13.50;102211.00;;;;5030299;28;20052;-66
2021/12/22 09:16:30;;;;;;;7.45;4.68;;;14.60;38.60;13.50;102216.00;;;;5030012;28;20462;-66
2021/12/22 09:19:16;;;;;;;7.05;4.53;;;14.60;38.60;13.50;102208.00;;;;5044234;28;20114;-66
2021/12/22 09:22:02;;;;;;;8.63;5.03;;;14.60;38.60;13.50;102218.00;;;;5028776;28;20053;-66
2021/12/22 09:24:49;;;;;;;7.30;4.40;;;14.60;38.60;13.50;102206.00;;;;5028779;28;20444;-66
2021/12/22 09:27:35;;;;;;;5.78;4.50;;;14.60;38.60;13.50;102221.00;;;;5027182;28;20064;-66
2021/12/22 09:30:21;;;;;;;5.75;4.18;;;14.60;38.60;13.50;102217.00;;;;5041668;28;20040;-66
2021/12/22 09:33:11;;;;;;;5.07;4.00;;;14.60;38.60;13.50;102220.00;;;;5026875;28;20414;-65
2021/12/22 09:35:57;;;;;;;6.50;4.28;;;14.60;38.60;13.50;102214.00;;;;5045726;28;20037;-65
2021/12/22 09:38:43;;;;;;;5.30;4.57;;;14.60;38.60;13.50;102212.00;;;;5043901;28;20077;-65
2021/12/22 09:41:29;;;;;;;4.82;3.60;;;14.60;38.60;13.50;102210.00;;;;5043022;28;20044;-66
2021/12/22 09:44:15;;;;;;;7.25;4.40;;;14.60;38.60;13.50;102223.00;;;;5042462;28;20120;-66
2021/12/22 09:47:02;;;;;;;5.15;3.85;;;14.60;38.60;13.50;102217.00;;;;5041364;28;20079;-66
2021/12/22 09:50:05;;;;;;;5.22;3.88;;;14.60;38.60;13.50;102218.00;;;;5033025;28;20040;-66
2021/12/22 09:52:52;;;;;;;4.45;3.88;;;14.60;38.60;13.50;102208.00;;;;5032595;28;20044;-65
2021/12/22 09:55:38;;;;;;;5.07;4.03;;;14.60;38.50;13.50;102215.00;;;;5028031;28;20546;-65
2021/12/22 09:58:25;;;;;;;5.10;4.15;;;14.60;38.60;13.50;102221.00;;;;5030750;28;20045;-66
2021/12/22 10:01:11;;;;;;;4.20;3.80;;;14.60;38.60;13.50;102227.00;;;;5016777;28;20045;-66
2021/12/22 10:03:59;;;;;;;4.75;3.53;;;14.60;38.50;13.50;102226.00;;;;5008966;28;20033;-66
2021/12/22 10:06:45;;;;;;;5.00;4.22;;;14.60;38.50;13.50;102227.00;;;;5045050;28;20044;-66
2021/12/22 10:09:32;;;;;;;6.13;3.95;;;14.60;38.50;13.50;102231.00;;;;5044259;28;20098;-66
2021/12/22 10:12:24;;;;;;;5.63;3.70;;;14.60;38.50;13.50;102224.00;;;;5043727;28;20521;-66
2021/12/22 10:15:12;;;;;;;5.15;4.20;;;14.60;38.60;13.50;102224.00;;;;5031108;28;20434;-67
2021/12/22 10:18:10;;;;;;;4.55;3.72;;;14.60;38.50;13.50;102226.00;;;;5042259;28;20048;-67
2021/12/22 10:21:15;;;;;;;5.38;3.92;;;14.60;38.50;13.50;102214.00;;;;5045487;28;20039;-66
2021/12/22 10:24:03;;;;;;;4.07;3.58;;;14.60;38.50;13.50;102215.00;;;;5043074;28;20453;-66
2021/12/22 10:27:05;;;;;;;4.25;3.78;;;14.60;38.50;13.50;102213.00;;;;5019417;28;20037;-67
2021/12/22 10:29:51;;;;;;;4.80;3.97;;;14.60;38.50;13.50;102206.00;;;;5047664;28;20071;-67
2021/12/22 10:32:37;;;;;;;4.53;3.60;;;14.60;38.60;13.50;102197.00;;;;5029010;28;20040;-67
2021/12/22 10:35:32;;;;;;;4.35;3.33;;;14.60;38.60;13.50;102190.00;;;;5043699;28;20103;-67
2021/12/22 10:38:26;;;;;;;5.10;3.22;;;14.60;38.50;13.50;102186.00;;;;5031641;28;20401;-67
2021/12/22 10:41:13;;;;;;;5.00;3.45;;;14.60;38.50;13.50;102186.00;;;;5030354;28;20045;-66
2021/12/22 10:43:59;;;;;;;4.55;3.83;;;14.60;38.60;13.50;102196.00;;;;5022541;28;20407;-67
2021/12/22 10:46:46;;;;;;;4.53;3.83;;;14.60;38.60;13.50;102191.00;;;;5032287;28;20037;-66
2021/12/22 10:49:33;;;;;;;4.57;3.22;;;14.70;38.60;13.50;102188.00;;;;5018215;28;20037;-66
2021/12/22 10:52:24;;;;;;;5.97;3.78;;;14.60;38.50;13.50;102180.00;;;;5029207;28;20041;-66
2021/12/22 10:55:13;;;;;;;4.40;3.95;;;14.70;38.50;13.50;102175.00;;;;5028999;28;20040;-67
2021/12/22 10:57:59;;;;;;;4.50;3.55;;;14.60;38.50;13.50;102169.00;;;;5016976;28;20425;-67
2021/12/22 11:01:07;;;;;;;4.63;3.70;;;14.70;38.60;13.50;102161.00;;;;5046063;28;20500;-66
2021/12/22 11:04:01;;;;;;;4.57;3.60;;;14.70;38.50;13.50;102176.00;;;;5044169;28;20029;-66
2021/12/22 11:06:50;;;;;;;4.50;3.38;;;14.70;38.50;13.60;102173.00;;;;5026453;28;20096;-67
2021/12/22 11:09:36;;;;;;;3.70;3.28;;;14.60;38.50;13.60;102170.00;;;;5030020;28;20040;-67
2021/12/22 11:12:39;;;;;;;4.13;3.45;;;14.60;38.50;13.60;102169.00;;;;5027950;28;20049;-66
2021/12/22 11:15:25;;;;;;;6.22;3.72;;;14.70;38.50;13.60;102156.00;;;;5029826;28;20045;-66
2021/12/22 11:18:30;;;;;;;4.28;3.55;;;14.70;38.50;13.60;102146.00;;;;5045311;28;20064;-66
2021/12/22 11:21:28;;;;;;;5.00;3.65;;;14.70;38.50;13.60;102148.00;;;;5022124;28;20040;-66
2021/12/22 11:24:14;;;;;;;4.93;3.50;;;14.70;38.50;13.60;102149.00;;;;5029955;28;20036;-67
2021/12/22 11:27:01;;;;;;;3.40;3.05;;;14.70;38.60;13.60;102141.00;;;;5027810;28;20377;-66
2021/12/22 11:29:52;;;;;;;4.97;3.50;;;14.80;38.60;13.60;102144.00;;;;5030481;28;20092;-66
2021/12/22 11:32:38;;;;;;;4.13;3.28;;;14.70;38.50;13.60;102143.00;;;;5027142;28;20080;-66
2021/12/22 11:35:24;;;;;;;4.55;3.53;;;14.70;38.60;13.60;102134.00;;;;5042031;28;20053;-67
2021/12/22 11:38:11;;;;;;;5.03;3.60;;;14.70;38.60;13.60;102131.00;;;;5028816;28;20459;-66
2021/12/22 11:41:13;;;;;;;5.07;3.40;;;14.70;38.60;13.60;102141.00;;;;5021494;28;20073;-67
2021/12/22 11:43:59;;;;;;;4.63;3.67;;;14.70;38.60;13.60;102139.00;;;;5032536;28;20036;-67
2021/12/22 11:46:46;;;;;;;4.40;3.42;;;14.80;38.60;13.60;102130.00;;;;5016477;28;20040;-67
2021/12/22 11:49:34;;;;;;;4.03;3.45;;;14.70;38.60;13.60;102118.00;;;;5029883;28;20044;-66
2021/12/22 11:52:31;;;;;;;4.10;3.70;;;14.70;38.60;13.60;102130.00;;;;5044596;28;20045;-66
2021/12/22 11:55:23;;;;;;;4.28;3.50;;;14.70;38.60;13.60;102115.00;;;;5044330;28;20095;-66
2021/12/22 11:58:28;;;;;;;4.90;3.47;;;14.80;38.70;13.60;102117.00;;;;5027802;28;20051;-66
2021/12/22 12:01:14;;;;;;;3.70;3.17;;;14.80;38.60;13.60;102112.00;;;;5023593;28;20072;-66
2021/12/22 12:04:17;;;;;;;4.05;3.55;;;14.80;39.40;13.60;102101.00;;;;5031496;28;20037;-66
2021/12/22 12:07:03;;;;;;;3.90;3.33;;;14.70;38.60;13.60;102098.00;;;;5022254;28;20033;-66
2021/12/22 12:09:49;;;;;;;5.03;3.75;;;14.80;38.70;13.60;102087.00;;;;5046486;28;20037;-66
2021/12/22 12:12:46;;;;;;;3.40;3.10;;;14.80;38.70;13.60;102091.00;;;;5031315;28;20048;-67
2021/12/22 12:22:42;;;;;;;3.50;3.10;;;14.80;38.70;13.60;102084.00;;;;5047261;28;20119;-69
2021/12/22 12:25:34;;;;;;;5.15;4.03;;;14.80;38.80;13.60;102072.00;;;;5022369;28;20037;-69
2021/12/22 12:28:21;;;;;;;4.88;3.55;;;14.80;38.80;13.60;102072.00;;;;5034085;28;20105;-70
2021/12/22 12:31:08;;;;;;;5.43;3.97;;;14.80;38.80;13.60;102081.00;;;;5040660;28;21930;-70
2021/12/22 12:34:15;;;;;;;4.90;3.60;;;14.80;38.80;13.60;102078.00;;;;5049324;28;20045;-69
2021/12/22 12:37:01;;;;;;;4.47;4.03;;;14.80;38.80;13.60;102072.00;;;;5023419;28;20241;-69
2021/12/22 12:39:55;;;;;;;4.55;3.58;;;14.80;38.80;13.70;102064.00;;;;5041933;28;20126;-69